createdAt,value
2022-07-25T00:02:10.011Z,96325.84
2022-07-25T00:04:40.499Z,96330.88
2022-07-25T00:07:12.007Z,96322.31
2022-07-25T00:09:39.835Z,96328.97
2022-07-25T00:12:08.335Z,96313.66
2022-07-25T00:14:39.154Z,96325.72
2022-07-25T00:17:06.985Z,96314.53
2022-07-25T00:19:34.749Z,96322.00
2022-07-25T00:22:02.583Z,96310.22
2022-07-25T00:24:32.025Z,96310.03
2022-07-25T00:26:59.859Z,96309.41
2022-07-25T00:29:27.606Z,96305.59
2022-07-25T00:31:55.392Z,96306.19
2022-07-25T00:34:23.239Z,96313.56
2022-07-25T00:36:51.015Z,96319.25
2022-07-25T00:39:18.857Z,96304.72
2022-07-25T00:41:48.012Z,96315.22
2022-07-25T00:44:24.117Z,96312.97
2022-07-25T00:46:53.307Z,96319.66
2022-07-25T00:49:21.880Z,96320.50
2022-07-25T00:51:50.993Z,96317.78
2022-07-25T00:54:18.998Z,96320.72
2022-07-25T00:56:49.146Z,96319.59
2022-07-25T00:59:17.889Z,96319.19
2022-07-25T01:01:48.294Z,96325.91
2022-07-25T01:04:17.430Z,96322.06
2022-07-25T01:06:45.568Z,96314.38
2022-07-25T01:09:13.454Z,96319.72
2022-07-25T01:11:41.344Z,96315.00
2022-07-25T01:14:10.682Z,96320.44
2022-07-25T01:16:38.514Z,96316.63
2022-07-25T01:19:06.262Z,96321.06
2022-07-25T01:21:39.028Z,96312.78
2022-07-25T01:24:08.738Z,96314.78
2022-07-25T01:26:38.073Z,96309.94
2022-07-25T01:29:06.394Z,96310.56
2022-07-25T01:31:34.473Z,96296.56
2022-07-25T01:34:02.399Z,96307.66
2022-07-25T01:36:30.257Z,96307.34
2022-07-25T01:38:59.786Z,96305.25
2022-07-25T01:41:27.817Z,96299.47
2022-07-25T01:43:55.610Z,96298.44
2022-07-25T01:46:23.441Z,96310.41
2022-07-25T01:48:51.510Z,96306.75
2022-07-25T01:51:20.399Z,96306.44
2022-07-25T01:53:48.656Z,96300.50
2022-07-25T01:56:19.413Z,96300.44
2022-07-25T01:58:50.293Z,96297.88
2022-07-25T02:01:19.450Z,96295.59
2022-07-25T02:03:49.645Z,96296.25
2022-07-25T02:06:19.253Z,96292.06
2022-07-25T02:08:47.026Z,96297.69
2022-07-25T02:11:14.800Z,96289.66
2022-07-25T02:13:44.641Z,96287.84
2022-07-25T02:16:12.688Z,96287.09
2022-07-25T02:18:40.816Z,96293.50
2022-07-25T02:21:14.221Z,96284.78
2022-07-25T02:23:44.702Z,96293.44
2022-07-25T02:26:14.929Z,96289.47
2022-07-25T02:28:44.041Z,96284.31
2022-07-25T02:31:11.896Z,96285.31
2022-07-25T02:33:39.733Z,96289.16
2022-07-25T02:36:08.343Z,96285.06
2022-07-25T02:38:36.162Z,96290.03
2022-07-25T02:41:04.590Z,96276.97
2022-07-25T02:43:33.032Z,96276.66
2022-07-25T02:46:02.463Z,96288.28
2022-07-25T02:48:30.565Z,96276.44
2022-07-25T02:50:58.878Z,96281.25
2022-07-25T02:53:54.486Z,96282.41
2022-07-25T02:56:14.871Z,96279.66
2022-07-25T02:58:44.251Z,96282.78
2022-07-25T03:01:14.243Z,96268.19
2022-07-25T03:03:42.162Z,96275.81
2022-07-25T03:06:10.078Z,96270.41
2022-07-25T03:08:37.848Z,96273.31
2022-07-25T03:11:05.830Z,96276.03
2022-07-25T03:13:35.083Z,96270.53
2022-07-25T03:16:03.087Z,96272.22
2022-07-25T03:18:32.251Z,96267.88
2022-07-25T03:21:01.095Z,96271.28
2022-07-25T03:23:30.891Z,96271.31
2022-07-25T03:25:59.270Z,96262.41
2022-07-25T03:28:27.788Z,96264.91
2022-07-25T03:30:55.675Z,96260.75
2022-07-25T03:33:23.611Z,96264.28
2022-07-25T03:35:52.985Z,96272.63
2022-07-25T03:38:21.084Z,96263.59
2022-07-25T03:40:48.964Z,96257.22
2022-07-25T03:43:16.711Z,96259.06
2022-07-25T03:45:44.798Z,96262.69
2022-07-25T03:48:12.578Z,96266.59
2022-07-25T03:50:40.410Z,96261.38
2022-07-25T03:53:10.306Z,96253.09
2022-07-25T03:55:39.660Z,96265.81
2022-07-25T03:58:08.090Z,96274.09
2022-07-25T04:00:35.812Z,96272.16
2022-07-25T04:03:03.568Z,96273.88
2022-07-25T04:05:31.655Z,96268.06
2022-07-25T04:07:59.620Z,96265.88
2022-07-25T04:10:29.737Z,96273.56
2022-07-25T04:12:57.493Z,96266.59
2022-07-25T04:15:25.378Z,96271.22
2022-07-25T04:17:53.051Z,96277.16
2022-07-25T04:20:21.733Z,96273.06
2022-07-25T04:22:50.582Z,96274.94
2022-07-25T04:25:19.029Z,96270.34
2022-07-25T04:27:48.542Z,96267.69
2022-07-25T04:30:24.321Z,96273.47
2022-07-25T04:32:52.912Z,96270.69
2022-07-25T04:35:20.942Z,96270.03
2022-07-25T04:37:48.706Z,96270.41
2022-07-25T04:40:16.879Z,96268.38
2022-07-25T04:42:44.616Z,96271.53
2022-07-25T04:45:14.475Z,96265.63
2022-07-25T04:47:45.851Z,96264.66
2022-07-25T04:50:13.946Z,96263.47
2022-07-25T04:52:42.044Z,96271.72
2022-07-25T04:55:11.138Z,96272.13
2022-07-25T04:57:39.783Z,96271.94
2022-07-25T05:00:09.986Z,96270.13
2022-07-25T05:02:39.276Z,96264.13
2022-07-25T05:05:08.491Z,96268.44
2022-07-25T05:07:49.444Z,96271.06
2022-07-25T05:10:17.252Z,96273.06
2022-07-25T05:12:45.071Z,96266.50
2022-07-25T05:15:13.549Z,96269.22
2022-07-25T05:17:42.713Z,96273.56
2022-07-25T05:20:12.175Z,96266.69
2022-07-25T05:22:40.023Z,96269.84
2022-07-25T05:25:09.370Z,96265.84
2022-07-25T05:27:37.351Z,96265.63
2022-07-25T05:30:08.793Z,96272.91
2022-07-25T05:32:36.558Z,96271.56
2022-07-25T05:35:07.937Z,96276.44
2022-07-25T05:37:35.827Z,96276.75
2022-07-25T05:40:03.971Z,96279.25
2022-07-25T05:42:31.814Z,96277.63
2022-07-25T05:44:59.630Z,96271.59
2022-07-25T05:47:27.652Z,96267.00
2022-07-25T05:49:55.557Z,96272.00
2022-07-25T05:52:25.540Z,96267.56
2022-07-25T05:54:54.309Z,96271.16
2022-07-25T05:57:22.423Z,96274.66
2022-07-25T05:59:50.146Z,96265.81
2022-07-25T06:02:18.069Z,96270.38
2022-07-25T06:04:46.157Z,96273.56
2022-07-25T06:07:17.064Z,96267.81
2022-07-25T06:09:46.479Z,96271.03
2022-07-25T06:12:14.890Z,96270.88
2022-07-25T06:14:42.677Z,96272.38
2022-07-25T06:17:10.665Z,96263.50
2022-07-25T06:19:38.439Z,96268.94
2022-07-25T06:22:07.989Z,96261.41
2022-07-25T06:24:36.030Z,96265.69
2022-07-25T06:27:05.371Z,96253.84
2022-07-25T06:29:33.189Z,96252.69
2022-07-25T06:32:01.210Z,96254.22
2022-07-25T06:34:29.146Z,96250.50
2022-07-25T06:36:57.469Z,96248.38
2022-07-25T06:39:25.961Z,96251.19
2022-07-25T06:41:53.792Z,96247.34
2022-07-25T06:44:23.055Z,96252.53
2022-07-25T06:46:50.908Z,96253.50
2022-07-25T06:49:18.937Z,96241.41
2022-07-25T06:51:46.722Z,96238.72
2022-07-25T06:54:15.644Z,96237.84
2022-07-25T06:56:43.504Z,96245.16
2022-07-25T06:59:11.420Z,96235.72
2022-07-25T07:01:40.784Z,96230.44
2022-07-25T07:04:08.855Z,96238.34
2022-07-25T07:06:38.662Z,96230.22
2022-07-25T07:09:06.594Z,96232.59
2022-07-25T07:11:35.069Z,96237.56
2022-07-25T07:14:03.666Z,96225.25
2022-07-25T07:16:32.372Z,96225.59
2022-07-25T07:19:01.564Z,96230.84
2022-07-25T07:21:29.439Z,96222.47
2022-07-25T07:23:57.222Z,96222.34
2022-07-25T07:26:25.002Z,96227.19
2022-07-25T07:28:54.509Z,96222.56
2022-07-25T07:31:22.485Z,96226.16
2022-07-25T07:33:50.381Z,96220.81
2022-07-25T07:36:19.474Z,96222.81
2022-07-25T07:38:48.462Z,96218.59
2022-07-25T07:41:16.575Z,96218.91
2022-07-25T07:43:44.404Z,96222.41
2022-07-25T07:46:12.355Z,96214.28
2022-07-25T07:48:40.371Z,96214.34
2022-07-25T07:51:08.289Z,96221.91
2022-07-25T07:53:51.357Z,96221.38
2022-07-25T07:56:20.142Z,96230.00
2022-07-25T07:58:48.340Z,96222.34
2022-07-25T08:01:16.295Z,96228.16
2022-07-25T08:03:44.161Z,96235.72
2022-07-25T08:06:11.882Z,96227.88
2022-07-25T08:08:41.298Z,96226.34
2022-07-25T08:11:09.099Z,96225.28
2022-07-25T08:13:38.127Z,96226.78
2022-07-25T08:16:06.897Z,96230.47
2022-07-25T08:18:34.963Z,96229.47
2022-07-25T08:21:06.051Z,96232.53
2022-07-25T08:23:35.389Z,96229.94
2022-07-25T08:26:05.434Z,96227.06
2022-07-25T08:28:33.429Z,96222.97
2022-07-25T08:31:01.876Z,96224.38
2022-07-25T08:33:29.742Z,96231.56
2022-07-25T08:35:58.785Z,96230.56
2022-07-25T08:38:29.002Z,96227.44
2022-07-25T08:40:57.936Z,96236.22
2022-07-25T08:43:27.242Z,96227.84
2022-07-25T08:45:55.997Z,96231.88
2022-07-25T08:48:26.153Z,96233.44
2022-07-25T08:50:57.289Z,96224.78
2022-07-25T08:53:34.097Z,96228.53
2022-07-25T08:56:06.721Z,96225.19
2022-07-25T08:58:40.656Z,96237.22
2022-07-25T09:01:09.122Z,96229.34
2022-07-25T09:03:36.988Z,96227.09
2022-07-25T09:06:15.898Z,96227.78
2022-07-25T09:08:55.614Z,96223.44
2022-07-25T09:11:31.736Z,96223.06
2022-07-25T09:14:07.104Z,96219.28
2022-07-25T09:16:40.135Z,96227.72
2022-07-25T09:19:10.691Z,96231.78
2022-07-25T09:21:39.854Z,96212.81
2022-07-25T09:24:13.108Z,96220.78
2022-07-25T09:26:49.262Z,96221.09
2022-07-25T09:29:20.097Z,96221.50
2022-07-25T09:31:48.153Z,96214.91
2022-07-25T09:34:21.890Z,96221.31
2022-07-25T09:36:56.436Z,96223.44
2022-07-25T09:39:34.358Z,96222.13
2022-07-25T09:42:02.364Z,96231.31
2022-07-25T09:44:31.696Z,96216.75
2022-07-25T09:46:59.839Z,96218.28
2022-07-25T09:49:38.135Z,96225.38
2022-07-25T09:52:06.428Z,96223.69
2022-07-25T09:54:34.841Z,96214.31
2022-07-25T09:57:02.725Z,96213.53
2022-07-25T09:59:31.899Z,96218.28
2022-07-25T10:02:09.187Z,96210.34
2022-07-25T10:04:45.983Z,96219.09
2022-07-25T10:07:16.439Z,96216.72
2022-07-25T10:09:46.739Z,96209.97
2022-07-25T10:12:16.227Z,96203.53
2022-07-25T10:15:07.455Z,96205.16
2022-07-25T10:17:36.252Z,96208.38
2022-07-25T10:20:06.565Z,96201.53
2022-07-25T10:22:57.898Z,96196.78
2022-07-25T10:25:26.477Z,96197.75
2022-07-25T10:28:01.108Z,96193.03
2022-07-25T10:30:36.798Z,96187.81
2022-07-25T10:33:06.544Z,96189.03
2022-07-25T10:35:34.347Z,96191.75
2022-07-25T10:38:05.182Z,96182.31
2022-07-25T10:40:36.703Z,96192.50
2022-07-25T10:43:09.783Z,96180.00
2022-07-25T10:45:45.243Z,96177.06
2022-07-25T10:48:22.126Z,96178.41
2022-07-25T10:50:57.854Z,96170.75
2022-07-25T10:53:31.521Z,96171.63
2022-07-25T10:56:06.117Z,96164.69
2022-07-25T10:58:51.902Z,96164.81
2022-07-25T11:01:26.361Z,96161.84
2022-07-25T11:03:56.501Z,96164.47
2022-07-25T11:06:33.478Z,96161.53
2022-07-25T11:09:02.203Z,96155.63
2022-07-25T11:11:42.100Z,96148.72
2022-07-25T11:14:16.756Z,96149.44
2022-07-25T11:16:47.617Z,96150.53
2022-07-25T11:19:19.376Z,96155.03
2022-07-25T11:21:48.120Z,96154.00
2022-07-25T11:24:15.842Z,96146.88
2022-07-25T11:26:48.266Z,96142.03
2022-07-25T11:29:21.752Z,96136.56
2022-07-25T11:31:55.491Z,96129.91
2022-07-25T11:34:26.370Z,96138.13
2022-07-25T11:36:57.239Z,96132.16
2022-07-25T11:39:27.150Z,96130.34
2022-07-25T11:42:02.943Z,96119.91
2022-07-25T11:44:38.622Z,96132.19
2022-07-25T11:47:10.308Z,96130.06
2022-07-25T11:49:48.505Z,96125.47
2022-07-25T11:52:24.038Z,96114.78
2022-07-25T11:54:56.973Z,96105.16
2022-07-25T11:57:25.932Z,96115.69
2022-07-25T11:59:54.272Z,96110.78
2022-07-25T12:02:25.956Z,96104.47
2022-07-25T12:04:58.459Z,96107.69
2022-07-25T12:07:44.994Z,96097.78
2022-07-25T12:10:17.171Z,96094.31
2022-07-25T12:12:50.645Z,96097.53
2022-07-25T12:15:21.597Z,96093.84
2022-07-25T12:17:52.303Z,96085.59
2022-07-25T12:20:22.115Z,96091.38
2022-07-25T12:22:50.964Z,96084.63
2022-07-25T12:25:18.930Z,96074.50
2022-07-25T12:27:47.007Z,96080.84
2022-07-25T12:30:15.685Z,96079.25
2022-07-25T12:32:43.957Z,96080.09
2022-07-25T12:35:14.914Z,96077.47
2022-07-25T12:37:43.547Z,96076.16
2022-07-25T12:40:13.525Z,96065.75
2022-07-25T12:42:41.382Z,96059.97
2022-07-25T12:45:09.920Z,96065.56
2022-07-25T12:47:37.860Z,96059.31
2022-07-25T12:50:07.288Z,96055.91
2022-07-25T12:52:37.837Z,96050.69
2022-07-25T12:55:06.874Z,96051.56
2022-07-25T12:57:36.146Z,96053.06
2022-07-25T13:00:04.543Z,96043.50
2022-07-25T13:02:32.437Z,96038.06
2022-07-25T13:05:00.387Z,96032.00
2022-07-25T13:07:28.260Z,96030.78
2022-07-25T13:09:57.548Z,96032.53
2022-07-25T13:12:25.345Z,96027.09
2022-07-25T13:14:53.183Z,96020.59
2022-07-25T13:17:25.070Z,96027.59
2022-07-25T13:19:55.455Z,96017.56
2022-07-25T13:22:23.480Z,96019.22
2022-07-25T13:24:51.307Z,96013.53
2022-07-25T13:27:20.979Z,96010.38
2022-07-25T13:29:53.960Z,96013.28
2022-07-25T13:32:22.218Z,96001.41
2022-07-25T13:34:50.196Z,96010.25
2022-07-25T13:37:18.099Z,96003.06
2022-07-25T13:39:45.840Z,95999.66
2022-07-25T13:42:13.662Z,96001.72
2022-07-25T13:44:43.066Z,95991.59
2022-07-25T13:47:11.065Z,95997.16
2022-07-25T13:49:38.903Z,95993.75
2022-07-25T13:52:07.428Z,95990.19
2022-07-25T13:54:35.299Z,95987.97
2022-07-25T13:57:03.413Z,95985.81
2022-07-25T13:59:31.457Z,95984.09
2022-07-25T14:02:00.709Z,95982.94
2022-07-25T14:04:28.588Z,95982.84
2022-07-25T14:06:58.328Z,95978.38
2022-07-25T14:09:26.105Z,95977.66
2022-07-25T14:11:53.900Z,95969.19
2022-07-25T14:14:21.626Z,95980.00
2022-07-25T14:16:49.988Z,95972.91
2022-07-25T14:19:19.109Z,95968.75
2022-07-25T14:21:46.805Z,95966.22
2022-07-25T14:24:14.582Z,95955.50
2022-07-25T14:26:42.367Z,95951.56
2022-07-25T14:29:11.311Z,95941.34
2022-07-25T14:31:40.658Z,95938.97
2022-07-25T14:34:09.027Z,95933.34
2022-07-25T14:36:38.185Z,95935.97
2022-07-25T14:39:06.611Z,95936.34
2022-07-25T14:41:35.244Z,95934.38
2022-07-25T14:44:02.956Z,95937.31
2022-07-25T14:46:30.998Z,95935.56
2022-07-25T14:48:58.967Z,95929.03
2022-07-25T14:51:28.487Z,95930.47
2022-07-25T14:53:57.589Z,95931.75
2022-07-25T14:56:25.338Z,95933.19
2022-07-25T14:58:53.070Z,95942.22
2022-07-25T15:01:24.301Z,95948.31
2022-07-25T15:03:52.356Z,95948.03
2022-07-25T15:06:20.216Z,95945.75
2022-07-25T15:08:47.985Z,95944.34
2022-07-25T15:11:17.093Z,95943.97
2022-07-25T15:13:44.955Z,95950.69
2022-07-25T15:16:13.886Z,95946.75
2022-07-25T15:19:05.306Z,95951.50
2022-07-25T15:21:29.791Z,95945.94
2022-07-25T15:23:57.553Z,95944.75
2022-07-25T15:26:26.677Z,95933.22
2022-07-25T15:28:54.587Z,95938.00
2022-07-25T15:31:24.277Z,95942.78
2022-07-25T15:33:54.402Z,95934.81
2022-07-25T15:36:27.103Z,95934.81
2022-07-25T15:38:57.171Z,95938.25
2022-07-25T15:41:26.617Z,95937.91
2022-07-25T15:43:54.646Z,95937.50
2022-07-25T15:46:22.556Z,95935.47
2022-07-25T15:48:50.696Z,95938.28
2022-07-25T15:51:18.670Z,95937.03
2022-07-25T15:53:46.661Z,95931.41
2022-07-25T15:56:16.029Z,95925.97
2022-07-25T15:58:45.931Z,95917.31
2022-07-25T16:01:13.789Z,95919.78
2022-07-25T16:03:41.681Z,95917.38
2022-07-25T16:06:09.823Z,95922.16
2022-07-25T16:08:37.840Z,95914.94
2022-07-25T16:11:06.178Z,95918.03
2022-07-25T16:13:33.947Z,95914.88
2022-07-25T16:16:03.070Z,95923.44
2022-07-25T16:18:30.969Z,95921.50
2022-07-25T16:20:58.674Z,95918.28
2022-07-25T16:23:28.103Z,95924.28
2022-07-25T16:25:55.888Z,95932.84
2022-07-25T16:28:23.593Z,95921.78
2022-07-25T16:30:52.145Z,95931.25
2022-07-25T16:33:21.379Z,95931.22
2022-07-25T16:35:49.163Z,95935.16
2022-07-25T16:38:17.627Z,95941.56
2022-07-25T16:40:45.425Z,95950.31
2022-07-25T16:43:13.144Z,95951.16
2022-07-25T16:45:42.197Z,95945.50
2022-07-25T16:48:10.276Z,95939.22
2022-07-25T16:50:39.644Z,95951.63
2022-07-25T16:53:07.562Z,95949.19
2022-07-25T16:55:35.413Z,95952.78
2022-07-25T16:58:03.731Z,95952.22
2022-07-25T17:00:31.784Z,95954.19
2022-07-25T17:02:59.638Z,95954.56
2022-07-25T17:05:27.461Z,95962.94
2022-07-25T17:07:59.392Z,95955.59
2022-07-25T17:10:28.053Z,95967.38
2022-07-25T17:12:55.845Z,95972.84
2022-07-25T17:15:24.074Z,95963.97
2022-07-25T17:17:51.867Z,95969.94
2022-07-25T17:20:20.155Z,95971.91
2022-07-25T17:22:47.952Z,95963.84
2022-07-25T17:25:17.772Z,95966.19
2022-07-25T17:27:45.699Z,95968.50
2022-07-25T17:30:14.017Z,95966.81
2022-07-25T17:32:41.769Z,95967.13
2022-07-25T17:35:10.471Z,95964.59
2022-07-25T17:37:38.262Z,95974.59
2022-07-25T17:40:06.868Z,95974.97
2022-07-25T17:42:36.011Z,95972.91
2022-07-25T17:45:06.878Z,95982.06
2022-07-25T17:47:34.875Z,95975.91
2022-07-25T17:50:02.828Z,95984.28
2022-07-25T17:52:30.845Z,95986.81
2022-07-25T17:54:58.875Z,95984.69
2022-07-25T17:57:27.226Z,95989.50
2022-07-25T17:59:57.120Z,96005.81
2022-07-25T18:02:25.300Z,96013.84
2022-07-25T18:04:53.437Z,96012.44
2022-07-25T18:07:21.159Z,96006.50
2022-07-25T18:09:48.889Z,96016.81
2022-07-25T18:12:16.621Z,96019.81
2022-07-25T18:14:44.387Z,96018.16
2022-07-25T18:17:13.657Z,96019.78
2022-07-25T18:19:41.558Z,96024.41
2022-07-25T18:22:09.347Z,96018.91
2022-07-25T18:24:38.331Z,96015.69
2022-07-25T18:27:06.692Z,96024.25
2022-07-25T18:29:37.010Z,96033.66
2022-07-25T18:32:05.411Z,96033.38
2022-07-25T18:34:34.557Z,96038.94
2022-07-25T18:37:02.336Z,96028.44
2022-07-25T18:39:30.218Z,96043.03
2022-07-25T18:41:58.103Z,96043.94
2022-07-25T18:44:25.878Z,96033.44
2022-07-25T18:46:53.849Z,96033.81
2022-07-25T18:49:21.926Z,96034.81
2022-07-25T18:51:51.290Z,96035.72
2022-07-25T18:54:19.063Z,96043.63
2022-07-25T18:56:46.940Z,96042.09
2022-07-25T18:59:14.703Z,96034.84
2022-07-25T19:01:42.658Z,96046.63
2022-07-25T19:04:10.902Z,96050.25
2022-07-25T19:06:38.944Z,96049.97
2022-07-25T19:09:11.326Z,96055.91
2022-07-25T19:11:42.382Z,96071.00
2022-07-25T19:14:10.691Z,96077.72
2022-07-25T19:16:39.620Z,96093.25
2022-07-25T19:19:09.496Z,96099.97
2022-07-25T19:21:37.690Z,96110.50
2022-07-25T19:24:06.457Z,96104.00
2022-07-25T19:26:35.853Z,96106.66
2022-07-25T19:29:03.596Z,96122.31
2022-07-25T19:31:31.413Z,96123.09
2022-07-25T19:33:59.163Z,96127.00
2022-07-25T19:36:26.948Z,96138.91
2022-07-25T19:38:54.689Z,96157.09
2022-07-25T19:41:22.514Z,96154.19
2022-07-25T19:43:52.384Z,96171.25
2022-07-25T19:46:20.597Z,96169.88
2022-07-25T19:48:48.578Z,96175.09
2022-07-25T19:51:16.475Z,96184.09
2022-07-25T19:53:44.277Z,96174.59
2022-07-25T19:56:12.024Z,96170.69
2022-07-25T19:58:43.163Z,96176.59
2022-07-25T20:01:13.054Z,96186.41
2022-07-25T20:03:41.712Z,96181.81
2022-07-25T20:06:10.019Z,96193.44
2022-07-25T20:08:39.263Z,96201.19
2022-07-25T20:11:07.366Z,96215.56
2022-07-25T20:13:35.973Z,96208.50
2022-07-25T20:16:04.025Z,96215.19
2022-07-25T20:18:33.406Z,96206.69
2022-07-25T20:21:01.168Z,96217.06
2022-07-25T20:23:30.102Z,96217.06
2022-07-25T20:25:58.063Z,96214.91
2022-07-25T20:28:25.970Z,96217.22
2022-07-25T20:30:55.734Z,96219.63
2022-07-25T20:33:26.986Z,96225.63
2022-07-25T20:35:56.666Z,96218.69
2022-07-25T20:38:25.535Z,96219.34
2022-07-25T20:40:54.560Z,96228.41
2022-07-25T20:43:22.974Z,96233.38
2022-07-25T20:45:50.897Z,96245.28
2022-07-25T20:48:18.890Z,96246.59
2022-07-25T20:50:46.787Z,96252.72
2022-07-25T20:53:15.926Z,96253.47
2022-07-25T20:55:43.700Z,96237.09
2022-07-25T20:58:11.433Z,96242.44
2022-07-25T21:00:39.202Z,96243.72
2022-07-25T21:03:08.206Z,96232.19
2022-07-25T21:05:37.588Z,96235.22
2022-07-25T21:08:05.793Z,96248.34
2022-07-25T21:10:35.048Z,96249.13
2022-07-25T21:13:02.892Z,96255.41
2022-07-25T21:15:31.739Z,96260.56
2022-07-25T21:17:59.987Z,96258.47
2022-07-25T21:20:27.842Z,96254.91
2022-07-25T21:22:56.326Z,96251.88
2022-07-25T21:25:24.138Z,96246.06
2022-07-25T21:27:53.288Z,96237.69
2022-07-25T21:30:21.090Z,96244.69
2022-07-25T21:32:48.878Z,96256.03
2022-07-25T21:35:18.084Z,96259.03
2022-07-25T21:37:45.873Z,96280.31
2022-07-25T21:40:14.146Z,96272.63
2022-07-25T21:42:43.342Z,96273.19
2022-07-25T21:45:13.214Z,96281.34
2022-07-25T21:47:40.931Z,96285.69
2022-07-25T21:50:27.379Z,96276.53
2022-07-25T21:52:55.216Z,96279.06
2022-07-25T21:55:23.452Z,96273.38
2022-07-25T21:57:51.684Z,96270.16
2022-07-25T22:00:22.378Z,96270.97
2022-07-25T22:02:50.326Z,96282.94
2022-07-25T22:05:19.096Z,96278.59
2022-07-25T22:07:47.640Z,96281.69
2022-07-25T22:10:16.897Z,96288.16
2022-07-25T22:12:44.965Z,96287.78
2022-07-25T22:15:13.801Z,96297.94
2022-07-25T22:17:49.226Z,96295.41
2022-07-25T22:20:18.040Z,96282.69
2022-07-25T22:22:46.643Z,96292.56
2022-07-25T22:25:14.778Z,96302.75
2022-07-25T22:27:42.718Z,96297.19
2022-07-25T22:30:18.433Z,96286.38
2022-07-25T22:32:49.066Z,96295.38
2022-07-25T22:35:17.076Z,96296.03
2022-07-25T22:37:45.281Z,96291.91
2022-07-25T22:40:14.675Z,96294.97
2022-07-25T22:42:42.743Z,96303.09
2022-07-25T22:45:11.365Z,96309.22
2022-07-25T22:47:39.130Z,96318.06
2022-07-25T22:50:10.268Z,96300.09
2022-07-25T22:52:38.011Z,96310.53
2022-07-25T22:55:06.481Z,96315.38
2022-07-25T22:57:36.766Z,96315.06
2022-07-25T23:00:07.335Z,96326.41
2022-07-25T23:02:35.365Z,96314.28
2022-07-25T23:05:03.215Z,96319.31
2022-07-25T23:07:32.667Z,96318.88
2022-07-25T23:10:00.608Z,96330.31
2022-07-25T23:12:28.473Z,96336.25
2022-07-25T23:14:56.314Z,96336.69
2022-07-25T23:17:24.669Z,96346.09
2022-07-25T23:19:53.994Z,96338.06
2022-07-25T23:22:23.041Z,96337.59
2022-07-25T23:24:52.215Z,96347.56
2022-07-25T23:27:20.023Z,96351.25
2022-07-25T23:29:47.770Z,96356.56
2022-07-25T23:32:15.590Z,96359.78
2022-07-25T23:34:44.250Z,96363.97
2022-07-25T23:37:12.160Z,96372.34
2022-07-25T23:39:39.935Z,96380.53
2022-07-25T23:42:09.709Z,96374.41
2022-07-25T23:44:39.126Z,96379.09
2022-07-25T23:47:10.014Z,96377.63
2022-07-25T23:49:38.054Z,96386.16
2022-07-25T23:52:06.703Z,96383.41
2022-07-25T23:54:34.895Z,96381.81
2022-07-25T23:57:03.137Z,96396.28
2022-07-25T23:59:32.241Z,96385.81
